sensor_id;sensor_type;location;lat;lon;timestamp;pressure;altitude;pressure_sealevel;temperature;humidity
11830;BME280;5972;42.134;24.718;2023-03-14T00:00:49;100147.34;;;5.48;72.05
11830;BME280;5972;42.134;24.718;2023-03-14T00:03:18;100136.50;;;5.39;73.07
11830;BME280;5972;42.134;24.718;2023-03-14T00:05:44;100138.53;;;5.29;75.39
11830;BME280;5972;42.134;24.718;2023-03-14T00:08:11;100136.94;;;5.28;75.05
11830;BME280;5972;42.134;24.718;2023-03-14T00:10:39;100127.00;;;5.28;75.59
11830;BME280;5972;42.134;24.718;2023-03-14T00:13:06;100135.81;;;4.96;76.75
11830;BME280;5972;42.134;24.718;2023-03-14T00:15:33;100136.41;;;4.93;76.91
11830;BME280;5972;42.134;24.718;2023-03-14T00:18:02;100133.81;;;4.88;77.07
11830;BME280;5972;42.134;24.718;2023-03-14T00:20:30;100119.69;;;4.83;77.24
11830;BME280;5972;42.134;24.718;2023-03-14T00:22:57;100116.00;;;4.79;78.19
11830;BME280;5972;42.134;24.718;2023-03-14T00:25:24;100118.44;;;4.75;78.58
11830;BME280;5972;42.134;24.718;2023-03-14T00:27:51;100113.94;;;4.71;79.21
11830;BME280;5972;42.134;24.718;2023-03-14T00:30:18;100116.50;;;4.62;80.16
11830;BME280;5972;42.134;24.718;2023-03-14T00:32:45;100107.41;;;4.58;79.12
11830;BME280;5972;42.134;24.718;2023-03-14T00:35:12;100104.97;;;4.62;78.48
11830;BME280;5972;42.134;24.718;2023-03-14T00:37:40;100092.06;;;4.64;77.52
11830;BME280;5972;42.134;24.718;2023-03-14T00:40:08;100093.66;;;4.65;77.45
11830;BME280;5972;42.134;24.718;2023-03-14T00:42:35;100091.25;;;4.63;78.83
11830;BME280;5972;42.134;24.718;2023-03-14T00:45:02;100087.75;;;4.68;79.47
11830;BME280;5972;42.134;24.718;2023-03-14T00:47:29;100082.94;;;4.65;80.09
11830;BME280;5972;42.134;24.718;2023-03-14T00:49:56;100081.34;;;4.64;80.59
11830;BME280;5972;42.134;24.718;2023-03-14T00:52:22;100087.22;;;4.66;79.87
11830;BME280;5972;42.134;24.718;2023-03-14T00:54:50;100048.16;;;4.41;78.95
11830;BME280;5972;42.134;24.718;2023-03-14T00:57:17;100072.38;;;4.54;79.37
11830;BME280;5972;42.134;24.718;2023-03-14T00:59:44;100079.63;;;4.54;78.97
11830;BME280;5972;42.134;24.718;2023-03-14T01:02:11;100066.50;;;4.52;78.69
11830;BME280;5972;42.134;24.718;2023-03-14T01:04:38;100047.38;;;4.40;78.58
11830;BME280;5972;42.134;24.718;2023-03-14T01:07:05;100056.56;;;4.53;78.38
11830;BME280;5972;42.134;24.718;2023-03-14T01:09:31;100052.09;;;4.48;79.12
11830;BME280;5972;42.134;24.718;2023-03-14T01:12:00;100054.25;;;4.46;78.94
11830;BME280;5972;42.134;24.718;2023-03-14T01:14:26;100042.81;;;4.41;79.07
11830;BME280;5972;42.134;24.718;2023-03-14T01:16:53;100049.50;;;4.43;80.15
11830;BME280;5972;42.134;24.718;2023-03-14T01:19:26;100024.50;;;4.10;82.01
11830;BME280;5972;42.134;24.718;2023-03-14T01:21:52;100044.41;;;4.42;81.46
11830;BME280;5972;42.134;24.718;2023-03-14T01:24:19;100018.44;;;3.81;83.10
11830;BME280;5972;42.134;24.718;2023-03-14T01:26:46;99993.41;;;3.72;84.04
11830;BME280;5972;42.134;24.718;2023-03-14T01:29:14;100046.72;;;4.11;83.21
11830;BME280;5972;42.134;24.718;2023-03-14T01:31:41;100042.50;;;4.05;82.40
11830;BME280;5972;42.134;24.718;2023-03-14T01:34:08;100046.22;;;4.09;81.67
11830;BME280;5972;42.134;24.718;2023-03-14T01:36:35;100048.75;;;4.00;81.40
11830;BME280;5972;42.134;24.718;2023-03-14T01:39:02;100040.28;;;4.12;80.65
11830;BME280;5972;42.134;24.718;2023-03-14T01:41:31;100041.66;;;4.09;80.59
11830;BME280;5972;42.134;24.718;2023-03-14T01:43:58;100031.66;;;4.15;79.33
11830;BME280;5972;42.134;24.718;2023-03-14T01:46:32;100030.56;;;3.97;80.21
11830;BME280;5972;42.134;24.718;2023-03-14T01:49:04;100039.50;;;4.11;79.32
11830;BME280;5972;42.134;24.718;2023-03-14T01:51:37;100034.19;;;4.06;79.83
11830;BME280;5972;42.134;24.718;2023-03-14T01:54:11;100017.75;;;3.94;80.13
11830;BME280;5972;42.134;24.718;2023-03-14T01:56:40;100029.84;;;4.10;79.73
11830;BME280;5972;42.134;24.718;2023-03-14T01:59:08;100026.59;;;4.13;78.84
11830;BME280;5972;42.134;24.718;2023-03-14T02:01:41;100012.19;;;4.09;79.54
11830;BME280;5972;42.134;24.718;2023-03-14T02:04:10;100017.97;;;3.98;79.36
11830;BME280;5972;42.134;24.718;2023-03-14T02:06:53;100024.25;;;4.07;78.97
11830;BME280;5972;42.134;24.718;2023-03-14T02:09:22;100018.34;;;4.10;78.70
11830;BME280;5972;42.134;24.718;2023-03-14T02:11:49;100020.56;;;4.03;77.90
11830;BME280;5972;42.134;24.718;2023-03-14T02:14:28;100015.75;;;4.05;78.22
11830;BME280;5972;42.134;24.718;2023-03-14T02:16:58;100017.16;;;3.97;78.93
11830;BME280;5972;42.134;24.718;2023-03-14T02:19:35;100015.50;;;3.83;77.45
11830;BME280;5972;42.134;24.718;2023-03-14T02:22:08;100008.47;;;3.87;77.44
11830;BME280;5972;42.134;24.718;2023-03-14T02:24:41;100006.56;;;3.68;79.26
11830;BME280;5972;42.134;24.718;2023-03-14T02:27:15;100014.47;;;3.79;78.71
11830;BME280;5972;42.134;24.718;2023-03-14T02:29:48;100008.03;;;3.80;78.70
11830;BME280;5972;42.134;24.718;2023-03-14T02:32:16;100018.69;;;3.61;79.86
11830;BME280;5972;42.134;24.718;2023-03-14T02:34:46;100016.38;;;3.54;82.17
11830;BME280;5972;42.134;24.718;2023-03-14T02:37:16;100019.50;;;3.61;82.21
11830;BME280;5972;42.134;24.718;2023-03-14T02:39:45;100019.13;;;3.68;81.97
11830;BME280;5972;42.134;24.718;2023-03-14T02:42:16;99957.28;;;3.27;82.20
11830;BME280;5972;42.134;24.718;2023-03-14T02:44:51;100017.19;;;3.73;82.27
11830;BME280;5972;42.134;24.718;2023-03-14T02:47:21;100014.25;;;3.75;82.01
11830;BME280;5972;42.134;24.718;2023-03-14T02:49:49;100003.06;;;3.68;82.73
11830;BME280;5972;42.134;24.718;2023-03-14T02:52:16;100011.84;;;3.73;84.27
11830;BME280;5972;42.134;24.718;2023-03-14T02:54:43;100026.47;;;3.81;84.80
11830;BME280;5972;42.134;24.718;2023-03-14T02:57:10;100023.53;;;3.83;84.09
11830;BME280;5972;42.134;24.718;2023-03-14T02:59:38;100026.69;;;3.85;84.95
11830;BME280;5972;42.134;24.718;2023-03-14T03:02:05;100027.50;;;3.85;85.34
11830;BME280;5972;42.134;24.718;2023-03-14T03:04:32;100028.06;;;3.82;85.66
11830;BME280;5972;42.134;24.718;2023-03-14T03:06:58;100026.53;;;3.76;85.90
11830;BME280;5972;42.134;24.718;2023-03-14T03:09:25;100036.38;;;3.81;87.14
11830;BME280;5972;42.134;24.718;2023-03-14T03:11:52;100038.78;;;3.82;91.11
11830;BME280;5972;42.134;24.718;2023-03-14T03:14:19;100045.28;;;3.76;94.91
11830;BME280;5972;42.134;24.718;2023-03-14T03:16:47;100033.56;;;3.72;97.09
11830;BME280;5972;42.134;24.718;2023-03-14T03:19:13;100037.03;;;3.72;95.61
11830;BME280;5972;42.134;24.718;2023-03-14T03:21:41;100028.25;;;3.67;96.16
11830;BME280;5972;42.134;24.718;2023-03-14T03:24:08;100028.88;;;3.59;95.84
11830;BME280;5972;42.134;24.718;2023-03-14T03:26:35;100031.34;;;3.55;96.38
11830;BME280;5972;42.134;24.718;2023-03-14T03:29:02;100032.19;;;3.51;97.93
11830;BME280;5972;42.134;24.718;2023-03-14T03:31:29;100023.94;;;3.47;100.00
11830;BME280;5972;42.134;24.718;2023-03-14T03:33:57;100027.63;;;3.27;100.00
11830;BME280;5972;42.134;24.718;2023-03-14T03:36:25;100020.09;;;3.29;97.98
11830;BME280;5972;42.134;24.718;2023-03-14T03:38:52;100024.09;;;3.32;98.35
11830;BME280;5972;42.134;24.718;2023-03-14T03:41:19;100018.75;;;3.32;98.53
11830;BME280;5972;42.134;24.718;2023-03-14T03:43:46;100000.69;;;3.19;100.00
11830;BME280;5972;42.134;24.718;2023-03-14T03:46:12;100018.47;;;3.33;100.00
11830;BME280;5972;42.134;24.718;2023-03-14T03:48:39;100018.69;;;3.08;100.00
11830;BME280;5972;42.134;24.718;2023-03-14T03:51:11;100021.00;;;3.20;100.00
11830;BME280;5972;42.134;24.718;2023-03-14T03:53:38;100017.53;;;3.19;100.00
11830;BME280;5972;42.134;24.718;2023-03-14T03:56:06;100023.88;;;3.28;100.00
11830;BME280;5972;42.134;24.718;2023-03-14T03:58:33;100018.97;;;3.35;100.00
11830;BME280;5972;42.134;24.718;2023-03-14T04:01:00;100013.03;;;2.86;100.00
11830;BME280;5972;42.134;24.718;2023-03-14T04:03:27;100009.63;;;2.75;100.00
11830;BME280;5972;42.134;24.718;2023-03-14T04:06:00;100003.63;;;2.60;100.00
11830;BME280;5972;42.134;24.718;2023-03-14T04:08:29;100002.25;;;2.62;100.00
11830;BME280;5972;42.134;24.718;2023-03-14T04:10:56;100000.06;;;2.69;100.00
11830;BME280;5972;42.134;24.718;2023-03-14T04:13:23;99999.00;;;2.70;100.00
11830;BME280;5972;42.134;24.718;2023-03-14T04:15:51;99966.00;;;2.51;100.00
11830;BME280;5972;42.134;24.718;2023-03-14T04:18:18;100002.09;;;2.82;100.00
11830;BME280;5972;42.134;24.718;2023-03-14T04:20:44;99992.66;;;2.90;100.00
11830;BME280;5972;42.134;24.718;2023-03-14T04:23:11;99989.94;;;3.00;100.00
11830;BME280;5972;42.134;24.718;2023-03-14T04:25:39;99992.53;;;3.05;100.00
11830;BME280;5972;42.134;24.718;2023-03-14T04:28:06;99992.53;;;3.05;100.00
11830;BME280;5972;42.134;24.718;2023-03-14T04:30:33;99987.63;;;3.12;100.00
11830;BME280;5972;42.134;24.718;2023-03-14T04:33:00;99984.94;;;3.17;100.00
11830;BME280;5972;42.134;24.718;2023-03-14T04:35:27;99988.00;;;3.29;99.34
11830;BME280;5972;42.134;24.718;2023-03-14T04:37:54;99985.00;;;3.36;98.64
11830;BME280;5972;42.134;24.718;2023-03-14T04:40:20;99984.94;;;3.41;98.08
11830;BME280;5972;42.134;24.718;2023-03-14T04:42:48;99979.31;;;3.43;97.21
11830;BME280;5972;42.134;24.718;2023-03-14T04:45:15;99983.13;;;3.37;98.05
11830;BME280;5972;42.134;24.718;2023-03-14T04:47:42;99981.38;;;3.51;97.93
11830;BME280;5972;42.134;24.718;2023-03-14T04:50:10;99981.44;;;3.64;95.96
11830;BME280;5972;42.134;24.718;2023-03-14T04:52:37;99974.81;;;3.81;94.28
11830;BME280;5972;42.134;24.718;2023-03-14T04:55:05;99985.13;;;4.11;91.67
11830;BME280;5972;42.134;24.718;2023-03-14T04:57:31;99982.06;;;4.36;88.60
11830;BME280;5972;42.134;24.718;2023-03-14T04:59:59;99984.75;;;4.55;85.16
11830;BME280;5972;42.134;24.718;2023-03-14T05:02:31;99982.69;;;4.66;82.69
11830;BME280;5972;42.134;24.718;2023-03-14T05:04:58;99992.97;;;4.58;81.83
11830;BME280;5972;42.134;24.718;2023-03-14T05:07:25;99997.69;;;4.67;83.73
11830;BME280;5972;42.134;24.718;2023-03-14T05:09:52;99994.84;;;4.77;82.48
11830;BME280;5972;42.134;24.718;2023-03-14T05:12:19;99999.31;;;4.81;82.66
11830;BME280;5972;42.134;24.718;2023-03-14T05:14:46;100005.59;;;4.90;83.29
11830;BME280;5972;42.134;24.718;2023-03-14T05:17:14;100004.72;;;4.95;82.88
11830;BME280;5972;42.134;24.718;2023-03-14T05:19:42;100003.41;;;4.92;82.73
11830;BME280;5972;42.134;24.718;2023-03-14T05:22:09;99961.44;;;4.69;84.12
11830;BME280;5972;42.134;24.718;2023-03-14T05:24:36;100001.56;;;5.07;82.27
11830;BME280;5972;42.134;24.718;2023-03-14T05:27:04;100008.22;;;5.09;85.26
11830;BME280;5972;42.134;24.718;2023-03-14T05:29:31;100007.84;;;4.51;90.69
11830;BME280;5972;42.134;24.718;2023-03-14T05:31:57;100018.97;;;4.77;100.00
11830;BME280;5972;42.134;24.718;2023-03-14T05:34:26;100012.59;;;5.05;100.00
11830;BME280;5972;42.134;24.718;2023-03-14T05:36:53;100015.66;;;4.98;92.03
11830;BME280;5972;42.134;24.718;2023-03-14T05:39:21;100017.63;;;5.66;86.50
11830;BME280;5972;42.134;24.718;2023-03-14T05:41:48;100012.25;;;6.43;76.68
11830;BME280;5972;42.134;24.718;2023-03-14T05:44:16;100016.00;;;7.09;69.27
11830;BME280;5972;42.134;24.718;2023-03-14T05:46:43;100005.28;;;8.14;61.19
11830;BME280;5972;42.134;24.718;2023-03-14T05:49:10;99986.94;;;8.33;56.49
11830;BME280;5972;42.134;24.718;2023-03-14T05:51:38;100008.28;;;8.98;54.90
11830;BME280;5972;42.134;24.718;2023-03-14T05:54:05;100007.03;;;9.42;52.50
11830;BME280;5972;42.134;24.718;2023-03-14T05:56:34;100011.50;;;9.76;50.78
11830;BME280;5972;42.134;24.718;2023-03-14T05:59:00;100007.63;;;10.77;49.42
11830;BME280;5972;42.134;24.718;2023-03-14T06:01:28;100003.91;;;11.27;46.28
11830;BME280;5972;42.134;24.718;2023-03-14T06:03:55;100004.53;;;11.93;44.14
11830;BME280;5972;42.134;24.718;2023-03-14T06:06:22;100009.34;;;12.36;43.10
11830;BME280;5972;42.134;24.718;2023-03-14T06:08:50;99981.91;;;12.54;41.32
11830;BME280;5972;42.134;24.718;2023-03-14T06:11:17;99999.50;;;12.32;41.80
11830;BME280;5972;42.134;24.718;2023-03-14T06:13:44;99999.03;;;11.78;42.69
11830;BME280;5972;42.134;24.718;2023-03-14T06:16:11;99991.53;;;11.62;43.07
11830;BME280;5972;42.134;24.718;2023-03-14T06:18:38;99997.63;;;10.90;44.15
11830;BME280;5972;42.134;24.718;2023-03-14T06:21:06;99988.41;;;10.58;44.66
11830;BME280;5972;42.134;24.718;2023-03-14T06:23:33;99983.13;;;10.41;44.82
11830;BME280;5972;42.134;24.718;2023-03-14T06:26:01;99986.72;;;10.99;45.18
11830;BME280;5972;42.134;24.718;2023-03-14T06:28:28;99982.72;;;12.02;43.62
11830;BME280;5972;42.134;24.718;2023-03-14T06:30:54;99978.09;;;13.77;39.68
11830;BME280;5972;42.134;24.718;2023-03-14T06:33:21;99981.78;;;14.77;37.42
11830;BME280;5972;42.134;24.718;2023-03-14T06:35:49;99980.91;;;15.83;35.23
11830;BME280;5972;42.134;24.718;2023-03-14T06:38:21;99974.50;;;16.91;33.63
11830;BME280;5972;42.134;24.718;2023-03-14T06:40:48;99988.63;;;16.97;32.58
11830;BME280;5972;42.134;24.718;2023-03-14T06:43:16;99979.03;;;17.58;31.81
11830;BME280;5972;42.134;24.718;2023-03-14T06:45:43;99981.13;;;17.71;31.41
11830;BME280;5972;42.134;24.718;2023-03-14T06:48:09;99982.63;;;17.65;31.66
11830;BME280;5972;42.134;24.718;2023-03-14T06:50:37;99982.44;;;17.95;31.19
11830;BME280;5972;42.134;24.718;2023-03-14T06:53:04;99983.22;;;17.96;31.04
11830;BME280;5972;42.134;24.718;2023-03-14T06:55:31;99969.13;;;18.69;29.99
11830;BME280;5972;42.134;24.718;2023-03-14T06:57:58;99960.56;;;19.03;29.81
11830;BME280;5972;42.134;24.718;2023-03-14T07:00:26;99960.56;;;19.91;28.65
11830;BME280;5972;42.134;24.718;2023-03-14T07:02:53;99954.34;;;19.59;27.98
11830;BME280;5972;42.134;24.718;2023-03-14T07:05:20;99969.84;;;18.56;29.47
11830;BME280;5972;42.134;24.718;2023-03-14T07:07:47;99958.28;;;19.58;28.91
11830;BME280;5972;42.134;24.718;2023-03-14T07:10:13;99957.38;;;20.14;27.96
11830;BME280;5972;42.134;24.718;2023-03-14T07:12:40;99960.41;;;20.52;27.15
11830;BME280;5972;42.134;24.718;2023-03-14T07:15:07;99949.25;;;19.68;27.90
11830;BME280;5972;42.134;24.718;2023-03-14T07:17:36;99947.94;;;20.22;27.18
11830;BME280;5972;42.134;24.718;2023-03-14T07:20:03;99950.13;;;18.22;28.85
11830;BME280;5972;42.134;24.718;2023-03-14T07:22:30;99929.16;;;17.27;29.52
11830;BME280;5972;42.134;24.718;2023-03-14T07:24:57;99938.91;;;15.16;31.88
11830;BME280;5972;42.134;24.718;2023-03-14T07:27:24;99937.97;;;13.89;34.63
11830;BME280;5972;42.134;24.718;2023-03-14T07:29:51;99938.22;;;15.68;32.62
11830;BME280;5972;42.134;24.718;2023-03-14T07:32:18;99933.09;;;17.33;30.82
11830;BME280;5972;42.134;24.718;2023-03-14T07:34:46;99929.19;;;18.79;28.58
11830;BME280;5972;42.134;24.718;2023-03-14T07:37:13;99914.72;;;19.07;28.14
11830;BME280;5972;42.134;24.718;2023-03-14T07:39:39;99936.47;;;20.45;27.16
11830;BME280;5972;42.134;24.718;2023-03-14T07:42:06;99929.19;;;20.87;26.52
11830;BME280;5972;42.134;24.718;2023-03-14T07:44:33;99911.22;;;20.68;26.20
11830;BME280;5972;42.134;24.718;2023-03-14T07:47:00;99916.97;;;20.91;26.18
11830;BME280;5972;42.134;24.718;2023-03-14T07:49:26;99908.88;;;21.25;25.98
11830;BME280;5972;42.134;24.718;2023-03-14T07:51:54;99921.19;;;21.03;25.85
11830;BME280;5972;42.134;24.718;2023-03-14T07:54:21;99917.72;;;20.22;26.78
11830;BME280;5972;42.134;24.718;2023-03-14T07:56:49;99917.06;;;19.01;27.94
11830;BME280;5972;42.134;24.718;2023-03-14T07:59:15;99914.72;;;18.86;28.29
11830;BME280;5972;42.134;24.718;2023-03-14T08:01:42;99923.78;;;19.22;27.76
11830;BME280;5972;42.134;24.718;2023-03-14T08:04:09;99901.41;;;19.02;28.07
11830;BME280;5972;42.134;24.718;2023-03-14T08:06:36;99912.72;;;19.92;27.48
11830;BME280;5972;42.134;24.718;2023-03-14T08:09:04;99907.56;;;20.02;27.11
11830;BME280;5972;42.134;24.718;2023-03-14T08:11:31;99910.31;;;20.85;26.53
11830;BME280;5972;42.134;24.718;2023-03-14T08:13:57;99903.81;;;21.13;25.95
11830;BME280;5972;42.134;24.718;2023-03-14T08:16:24;99898.88;;;20.21;26.32
11830;BME280;5972;42.134;24.718;2023-03-14T08:18:51;99900.13;;;19.95;26.82
11830;BME280;5972;42.134;24.718;2023-03-14T08:21:18;99904.94;;;19.59;27.02
11830;BME280;5972;42.134;24.718;2023-03-14T08:23:44;99906.84;;;19.87;27.13
11830;BME280;5972;42.134;24.718;2023-03-14T08:26:13;99892.50;;;20.49;26.46
11830;BME280;5972;42.134;24.718;2023-03-14T08:28:39;99893.06;;;20.81;25.98
11830;BME280;5972;42.134;24.718;2023-03-14T08:31:06;99897.25;;;20.30;26.24
11830;BME280;5972;42.134;24.718;2023-03-14T08:33:33;99892.25;;;20.11;26.53
11830;BME280;5972;42.134;24.718;2023-03-14T08:36:00;99893.56;;;20.65;26.15
11830;BME280;5972;42.134;24.718;2023-03-14T08:38:27;99885.91;;;20.32;25.96
11830;BME280;5972;42.134;24.718;2023-03-14T08:40:57;99887.84;;;15.88;30.86
11830;BME280;5972;42.134;24.718;2023-03-14T08:43:26;99874.38;;;19.00;28.26
11830;BME280;5972;42.134;24.718;2023-03-14T08:45:53;99891.56;;;19.75;26.93
11830;BME280;5972;42.134;24.718;2023-03-14T08:48:20;99877.91;;;19.33;27.48
11830;BME280;5972;42.134;24.718;2023-03-14T08:50:46;99873.97;;;19.37;27.09
11830;BME280;5972;42.134;24.718;2023-03-14T08:53:13;99855.91;;;19.72;26.90
11830;BME280;5972;42.134;24.718;2023-03-14T08:55:40;99858.44;;;20.21;26.67
11830;BME280;5972;42.134;24.718;2023-03-14T08:58:07;99850.75;;;19.84;26.74
11830;BME280;5972;42.134;24.718;2023-03-14T09:00:35;99844.19;;;19.36;27.26
11830;BME280;5972;42.134;24.718;2023-03-14T09:03:02;99837.72;;;20.03;26.61
11830;BME280;5972;42.134;24.718;2023-03-14T09:05:28;99832.38;;;19.71;26.90
11830;BME280;5972;42.134;24.718;2023-03-14T09:07:58;99827.03;;;20.19;26.17
11830;BME280;5972;42.134;24.718;2023-03-14T09:10:25;99819.13;;;20.35;25.90
11830;BME280;5972;42.134;24.718;2023-03-14T09:12:52;99815.81;;;19.85;26.11
11830;BME280;5972;42.134;24.718;2023-03-14T09:15:19;99819.16;;;19.05;27.11
11830;BME280;5972;42.134;24.718;2023-03-14T09:17:47;99810.69;;;19.98;25.88
11830;BME280;5972;42.134;24.718;2023-03-14T09:20:13;99807.00;;;20.25;25.74
11830;BME280;5972;42.134;24.718;2023-03-14T09:22:40;99802.78;;;20.72;25.04
11830;BME280;5972;42.134;24.718;2023-03-14T09:25:07;99798.50;;;19.99;25.53
11830;BME280;5972;42.134;24.718;2023-03-14T09:27:35;99791.94;;;17.18;29.07
11830;BME280;5972;42.134;24.718;2023-03-14T09:30:02;99776.44;;;16.78;29.88
11830;BME280;5972;42.134;24.718;2023-03-14T09:32:30;99765.47;;;18.48;28.08
11830;BME280;5972;42.134;24.718;2023-03-14T09:34:58;99767.78;;;19.06;27.08
11830;BME280;5972;42.134;24.718;2023-03-14T09:37:25;99766.28;;;18.80;27.21
11830;BME280;5972;42.134;24.718;2023-03-14T09:39:52;99774.81;;;19.32;27.13
11830;BME280;5972;42.134;24.718;2023-03-14T09:42:22;99760.78;;;18.62;26.98
11830;BME280;5972;42.134;24.718;2023-03-14T09:44:54;99754.50;;;18.51;27.70
11830;BME280;5972;42.134;24.718;2023-03-14T09:47:23;99758.81;;;18.95;26.67
11830;BME280;5972;42.134;24.718;2023-03-14T09:49:50;99757.59;;;19.06;26.46
11830;BME280;5972;42.134;24.718;2023-03-14T09:52:21;99748.09;;;20.33;25.27
11830;BME280;5972;42.134;24.718;2023-03-14T09:54:51;99749.66;;;21.24;24.63
11830;BME280;5972;42.134;24.718;2023-03-14T09:57:20;99729.78;;;20.64;24.70
11830;BME280;5972;42.134;24.718;2023-03-14T09:59:49;99746.16;;;20.79;24.67
11830;BME280;5972;42.134;24.718;2023-03-14T10:02:19;99747.78;;;20.14;24.94
11830;BME280;5972;42.134;24.718;2023-03-14T10:04:47;99745.38;;;20.23;24.58
11830;BME280;5972;42.134;24.718;2023-03-14T10:07:16;99720.59;;;19.71;24.79
11830;BME280;5972;42.134;24.718;2023-03-14T10:09:48;99734.38;;;19.61;25.23
11830;BME280;5972;42.134;24.718;2023-03-14T10:12:16;99713.91;;;19.69;25.25
11830;BME280;5972;42.134;24.718;2023-03-14T10:14:46;99667.97;;;19.80;24.93
11830;BME280;5972;42.134;24.718;2023-03-14T10:17:14;99707.91;;;20.91;24.34
11830;BME280;5972;42.134;24.718;2023-03-14T10:19:50;99705.09;;;21.66;23.59
11830;BME280;5972;42.134;24.718;2023-03-14T10:22:18;99696.06;;;21.92;23.23
11830;BME280;5972;42.134;24.718;2023-03-14T10:24:52;99686.63;;;21.63;23.32
11830;BME280;5972;42.134;24.718;2023-03-14T10:27:20;99684.44;;;21.21;23.63
11830;BME280;5972;42.134;24.718;2023-03-14T10:29:53;99657.50;;;21.01;23.54
11830;BME280;5972;42.134;24.718;2023-03-14T10:32:23;99680.31;;;21.36;23.44
11830;BME280;5972;42.134;24.718;2023-03-14T10:35:07;99662.00;;;19.92;24.65
11830;BME280;5972;42.134;24.718;2023-03-14T10:37:35;99669.31;;;19.54;24.82
11830;BME280;5972;42.134;24.718;2023-03-14T10:40:04;99677.72;;;18.97;25.38
11830;BME280;5972;42.134;24.718;2023-03-14T10:42:33;99634.94;;;19.18;25.44
11830;BME280;5972;42.134;24.718;2023-03-14T10:45:03;99635.53;;;18.03;26.75
11830;BME280;5972;42.134;24.718;2023-03-14T10:47:33;99641.31;;;18.93;25.72
11830;BME280;5972;42.134;24.718;2023-03-14T10:50:23;99632.44;;;19.51;25.22
11830;BME280;5972;42.134;24.718;2023-03-14T10:52:52;99632.97;;;19.22;25.23
11830;BME280;5972;42.134;24.718;2023-03-14T10:55:20;99630.41;;;18.47;25.79
11830;BME280;5972;42.134;24.718;2023-03-14T10:57:47;99624.19;;;18.18;26.79
11830;BME280;5972;42.134;24.718;2023-03-14T11:00:16;99612.69;;;17.24;27.76
11830;BME280;5972;42.134;24.718;2023-03-14T11:02:54;99612.47;;;16.78;28.88
11830;BME280;5972;42.134;24.718;2023-03-14T11:05:29;99606.22;;;16.71;29.06
11830;BME280;5972;42.134;24.718;2023-03-14T11:08:02;99596.50;;;16.22;30.21
11830;BME280;5972;42.134;24.718;2023-03-14T11:10:33;99597.16;;;15.61;30.63
11830;BME280;5972;42.134;24.718;2023-03-14T11:13:17;99589.34;;;15.59;31.31
11830;BME280;5972;42.134;24.718;2023-03-14T11:15:53;99563.97;;;15.55;31.54
11830;BME280;5972;42.134;24.718;2023-03-14T11:18:39;99561.88;;;15.42;31.49
11830;BME280;5972;42.134;24.718;2023-03-14T11:21:11;99561.06;;;14.41;33.26
11830;BME280;5972;42.134;24.718;2023-03-14T11:23:47;99554.88;;;14.74;33.02
11830;BME280;5972;42.134;24.718;2023-03-14T11:26:28;99549.78;;;13.90;34.59
11830;BME280;5972;42.134;24.718;2023-03-14T11:29:07;99529.91;;;14.38;33.82
11830;BME280;5972;42.134;24.718;2023-03-14T11:31:35;99517.34;;;14.30;34.76
11830;BME280;5972;42.134;24.718;2023-03-14T11:34:11;99519.78;;;14.65;33.28
11830;BME280;5972;42.134;24.718;2023-03-14T11:36:46;99509.59;;;14.59;33.50
11830;BME280;5972;42.134;24.718;2023-03-14T11:39:19;99506.00;;;14.54;33.61
11830;BME280;5972;42.134;24.718;2023-03-14T11:41:49;99498.34;;;14.34;33.74
11830;BME280;5972;42.134;24.718;2023-03-14T11:44:19;99493.84;;;14.45;33.96
11830;BME280;5972;42.134;24.718;2023-03-14T11:46:50;99484.66;;;14.56;33.60
11830;BME280;5972;42.134;24.718;2023-03-14T11:49:27;99473.06;;;14.33;33.69
11830;BME280;5972;42.134;24.718;2023-03-14T11:51:59;99459.25;;;14.45;33.62
11830;BME280;5972;42.134;24.718;2023-03-14T11:54:34;99470.31;;;14.60;34.06
11830;BME280;5972;42.134;24.718;2023-03-14T11:57:12;99458.53;;;14.52;34.13
11830;BME280;5972;42.134;24.718;2023-03-14T11:59:47;99453.56;;;14.57;34.04
11830;BME280;5972;42.134;24.718;2023-03-14T12:02:22;99441.09;;;14.56;34.09
11830;BME280;5972;42.134;24.718;2023-03-14T12:05:03;99431.00;;;14.61;34.41
11830;BME280;5972;42.134;24.718;2023-03-14T12:07:43;99425.28;;;14.36;34.89
11830;BME280;5972;42.134;24.718;2023-03-14T12:10:19;99407.22;;;14.21;34.80
11830;BME280;5972;42.134;24.718;2023-03-14T12:12:47;99398.09;;;14.39;34.88
11830;BME280;5972;42.134;24.718;2023-03-14T12:15:18;99370.66;;;14.55;35.00
11830;BME280;5972;42.134;24.718;2023-03-14T12:17:46;99369.59;;;14.63;35.03
11830;BME280;5972;42.134;24.718;2023-03-14T12:20:21;99377.28;;;14.21;35.28
11830;BME280;5972;42.134;24.718;2023-03-14T12:22:50;99374.16;;;14.52;35.22
11830;BME280;5972;42.134;24.718;2023-03-14T12:25:20;99369.13;;;14.54;35.16
11830;BME280;5972;42.134;24.718;2023-03-14T12:28:04;99369.28;;;14.72;35.21
11830;BME280;5972;42.134;24.718;2023-03-14T12:30:41;99362.56;;;14.62;35.18
11830;BME280;5972;42.134;24.718;2023-03-14T12:33:12;99367.94;;;14.55;35.61
11830;BME280;5972;42.134;24.718;2023-03-14T12:35:40;99358.44;;;14.38;36.05
11830;BME280;5972;42.134;24.718;2023-03-14T12:38:10;99368.44;;;14.31;36.45
11830;BME280;5972;42.134;24.718;2023-03-14T12:40:41;99351.06;;;14.39;36.55
11830;BME280;5972;42.134;24.718;2023-03-14T12:43:26;99349.97;;;14.47;36.53
11830;BME280;5972;42.134;24.718;2023-03-14T12:46:24;99342.69;;;14.58;36.72
11830;BME280;5972;42.134;24.718;2023-03-14T12:48:54;99345.19;;;14.74;36.51
11830;BME280;5972;42.134;24.718;2023-03-14T12:51:29;99339.75;;;14.77;36.51
11830;BME280;5972;42.134;24.718;2023-03-14T12:54:12;99326.13;;;14.74;36.54
11830;BME280;5972;42.134;24.718;2023-03-14T12:57:00;99325.84;;;14.86;36.56
11830;BME280;5972;42.134;24.718;2023-03-14T12:59:34;99328.63;;;14.96;36.44
11830;BME280;5972;42.134;24.718;2023-03-14T13:02:15;99314.47;;;14.77;36.63
11830;BME280;5972;42.134;24.718;2023-03-14T13:04:48;99291.06;;;14.69;37.03
11830;BME280;5972;42.134;24.718;2023-03-14T13:07:31;99313.50;;;15.03;37.09
11830;BME280;5972;42.134;24.718;2023-03-14T13:10:05;99305.78;;;15.12;36.73